Time;durP1;ratioP1;P1;durP2;ratioP2;P2;SDS_P1;SDS_P2;PMS_P1;PMS_P2;Temp;Humidity;BMP_temperature;BMP_pressure;BME280_temperature;BME280_humidity;BME280_pressure;Samples;Min_cycle;Max_cycle;Signal;HPM_P1;HPM_P2
2022/01/07 00:00:01;;;;;;;;;12.00;12.00;;;;;6.57;63.64;101120.25;5056292;28;48397;-77
2022/01/07 00:02:27;;;;;;;;;11.50;9.25;;;;;6.56;63.88;101112.50;5074468;28;47213;-77
2022/01/07 00:04:52;;;;;;;;;10.00;9.00;;;;;6.52;64.07;101101.41;5074267;28;45680;-77
2022/01/07 00:07:18;;;;;;;;;10.00;9.50;;;;;6.49;63.97;101117.13;5073119;28;45947;-79
2022/01/07 00:09:54;;;;;;;;;9.50;9.25;;;;;6.44;64.19;101105.25;5073639;28;46820;-76
2022/01/07 00:12:23;;;;;;;;;11.00;9.25;;;;;6.41;64.03;101105.41;5056831;28;46276;-77
2022/01/07 00:21:38;;;;;;;;;10.25;9.00;;;;;6.30;64.85;101074.69;4971258;28;45680;-78
2022/01/07 00:24:15;;;;;;;;;11.00;9.50;;;;;6.19;64.55;101062.16;4971404;28;46378;-78
2022/01/07 00:26:40;;;;;;;;;11.75;9.00;;;;;6.24;64.88;101070.59;4971756;28;45742;-78
2022/01/07 00:29:06;;;;;;;;;12.75;12.00;;;;;6.21;65.13;101056.88;4972112;28;45695;-77
2022/01/07 00:31:32;;;;;;;;;15.25;10.25;;;;;6.12;65.43;101033.88;4971791;28;46748;-77
2022/01/07 00:33:58;;;;;;;;;11.75;9.50;;;;;6.18;65.15;101051.81;4971589;28;46405;-78
2022/01/07 00:36:24;;;;;;;;;12.00;9.00;;;;;6.16;65.54;101032.81;4971535;28;45779;-78
2022/01/07 00:38:50;;;;;;;;;12.75;9.50;;;;;6.10;65.93;101027.94;4971819;28;45918;-76
2022/01/07 00:41:15;;;;;;;;;12.00;9.50;;;;;6.09;66.12;101036.63;4971900;28;45648;-77
2022/01/07 00:43:41;;;;;;;;;9.00;8.00;;;;;5.99;65.89;101030.19;4971722;28;46110;-75
2022/01/07 00:46:10;;;;;;;;;12.00;9.00;;;;;6.05;66.11;101033.31;4972136;28;45625;-76
2022/01/07 00:48:35;;;;;;;;;10.25;9.00;;;;;5.90;65.96;101008.00;4972102;28;45596;-77
2022/01/07 00:51:00;;;;;;;;;12.25;9.50;;;;;6.05;66.38;101029.88;4971971;28;46099;-78
2022/01/07 00:53:26;;;;;;;;;7.00;5.75;;;;;6.04;66.22;101042.06;4971413;28;46289;-77
2022/01/07 00:55:54;;;;;;;;;10.00;8.75;;;;;5.98;66.79;101036.28;5070647;28;45559;-77
2022/01/07 00:58:20;;;;;;;;;10.75;8.50;;;;;5.89;66.40;101012.38;5055183;28;46000;-77
2022/01/07 01:00:46;;;;;;;;;12.75;10.00;;;;;5.90;66.57;101024.47;5073521;28;46348;-78
2022/01/07 01:03:11;;;;;;;;;12.50;11.25;;;;;5.94;67.14;101012.16;5073623;28;45804;-78
2022/01/07 01:05:42;;;;;;;;;8.25;5.75;;;;;5.94;67.06;101021.75;5078273;28;45693;-77
2022/01/07 01:08:11;;;;;;;;;12.50;10.00;;;;;5.91;67.26;101033.09;5075385;28;45766;-76
2022/01/07 01:10:37;;;;;;;;;13.00;11.00;;;;;5.84;67.35;101011.69;5074269;28;47363;-78
2022/01/07 01:13:03;;;;;;;;;11.25;8.00;;;;;5.82;67.46;101026.53;5073904;28;46038;-78
2022/01/07 01:15:32;;;;;;;;;8.00;8.00;;;;;5.77;67.27;101005.09;5073232;28;45791;-78
2022/01/07 01:17:59;;;;;;;;;9.00;8.25;;;;;5.82;67.40;101015.28;5073212;28;45835;-78
2022/01/07 01:20:27;;;;;;;;;12.75;9.25;;;;;5.83;67.47;101017.81;5072417;28;47311;-78
2022/01/07 01:22:55;;;;;;;;;8.00;8.00;;;;;5.83;67.57;101004.81;5073414;28;46250;-78
2022/01/07 01:25:21;;;;;;;;;9.00;8.00;;;;;5.83;67.67;101015.19;5072926;28;45874;-75
2022/01/07 01:27:49;;;;;;;;;12.50;8.75;;;;;5.78;67.37;101000.72;5071297;28;45536;-78
2022/01/07 01:36:40;;;;;;;;;7.00;7.00;;;;;5.76;67.59;101023.38;5072281;28;46120;-77
2022/01/07 01:39:05;;;;;;;;;10.75;8.00;;;;;5.77;67.64;101012.91;5072857;28;45846;-77
2022/01/07 01:41:49;;;;;;;;;10.25;9.00;;;;;5.77;67.90;101017.25;5054475;28;47749;-76
2022/01/07 01:44:14;;;;;;;;;12.50;8.75;;;;;5.71;67.90;101010.59;5072539;28;47375;-76
2022/01/07 01:46:40;;;;;;;;;8.00;7.50;;;;;5.65;67.74;100986.59;5072433;28;45653;-79
2022/01/07 01:49:08;;;;;;;;;8.50;8.50;;;;;5.62;68.04;100992.78;5054244;28;45758;-78
2022/01/07 01:51:34;;;;;;;;;12.25;8.00;;;;;5.68;67.67;100995.09;5073015;28;45826;-77
2022/01/07 01:54:01;;;;;;;;;6.00;5.00;;;;;5.74;68.02;101025.19;5072921;28;46269;-77
2022/01/07 01:56:29;;;;;;;;;9.00;8.00;;;;;5.54;68.02;100968.06;5054012;28;46127;-77
2022/01/07 01:58:55;;;;;;;;;8.00;8.00;;;;;5.62;68.25;100991.94;5073174;28;45668;-78
2022/01/07 02:01:21;;;;;;;;;9.00;8.50;;;;;5.61;68.24;100990.25;5072577;28;46706;-77
2022/01/07 02:03:46;;;;;;;;;12.00;7.00;;;;;5.74;68.22;100999.19;5072381;28;45507;-77
2022/01/07 02:06:12;;;;;;;;;8.00;8.00;;;;;5.74;68.20;100991.38;5072612;28;45564;-76
2022/01/07 02:08:37;;;;;;;;;8.75;8.25;;;;;5.74;68.24;100999.19;5072983;28;45657;-77
2022/01/07 02:11:04;;;;;;;;;11.75;9.00;;;;;5.70;68.28;100993.28;5073243;28;46434;-77
2022/01/07 02:13:48;;;;;;;;;8.00;6.50;;;;;5.61;68.81;100974.66;5073298;28;46113;-78
2022/01/07 02:16:15;;;;;;;;;6.50;5.50;;;;;5.76;68.47;100984.38;5072799;28;45999;-77
2022/01/07 02:18:44;;;;;;;;;9.00;8.00;;;;;5.78;68.37;100995.53;5072631;28;45624;-78
2022/01/07 02:21:10;;;;;;;;;8.00;8.00;;;;;5.66;68.16;100967.50;5054581;28;46987;-77
2022/01/07 02:23:45;;;;;;;;;7.50;6.00;;;;;5.61;68.41;100954.72;5072114;28;46388;-78
2022/01/07 02:26:12;;;;;;;;;9.50;8.00;;;;;5.15;68.69;100870.19;5071745;28;45940;-77
2022/01/07 02:28:40;;;;;;;;;12.50;9.50;;;;;5.70;68.65;100946.50;5072348;28;45514;-78
2022/01/07 02:31:06;;;;;;;;;7.75;6.25;;;;;5.84;68.20;100970.09;5072243;28;46602;-77
2022/01/07 02:33:31;;;;;;;;;7.00;6.00;;;;;5.85;68.66;100966.59;5075983;28;45672;-77
2022/01/07 02:35:57;;;;;;;;;6.00;6.00;;;;;5.71;68.63;100937.81;5076242;28;45806;-77
2022/01/07 02:38:23;;;;;;;;;9.25;8.00;;;;;5.86;68.66;100960.50;5075507;28;45631;-77
2022/01/07 02:40:48;;;;;;;;;11.00;5.50;;;;;5.86;68.78;100960.50;5075852;28;45770;-77
2022/01/07 02:43:14;;;;;;;;;9.50;7.00;;;;;5.87;69.04;100953.56;5076017;28;45640;-76
2022/01/07 02:45:40;;;;;;;;;9.00;7.75;;;;;5.87;69.06;100946.63;5076002;28;45691;-77
2022/01/07 02:51:27;;;;;;;;;8.00;5.75;;;;;5.81;68.75;100931.25;5075234;28;45916;-78
2022/01/07 02:53:52;;;;;;;;;9.00;8.00;;;;;5.88;69.20;100943.06;5075549;28;45725;-78
2022/01/07 02:56:18;;;;;;;;;5.25;5.00;;;;;5.88;69.00;100932.69;5075490;28;46124;-77
2022/01/07 02:58:44;;;;;;;;;5.50;5.50;;;;;5.89;69.05;100933.53;5075918;28;45669;-77
2022/01/07 03:01:09;;;;;;;;;6.00;6.00;;;;;5.89;69.18;100943.91;5075415;28;45798;-77
2022/01/07 03:03:35;;;;;;;;;15.25;5.75;;;;;5.89;69.29;100941.31;5075564;28;45735;-77
2022/01/07 03:06:00;;;;;;;;;6.00;6.00;;;;;5.87;69.39;100935.38;5075362;28;45910;-77
2022/01/07 03:08:26;;;;;;;;;7.75;6.50;;;;;5.81;69.23;100926.06;5075406;28;45920;-77
2022/01/07 03:10:52;;;;;;;;;4.50;4.50;;;;;5.84;69.22;100936.31;5075585;28;45680;-77
2022/01/07 03:13:17;;;;;;;;;6.00;5.00;;;;;5.81;69.47;100935.63;5075243;28;45901;-77
2022/01/07 03:15:42;;;;;;;;;6.50;5.00;;;;;5.80;69.41;100934.78;5074969;28;45781;-76
2022/01/07 03:21:29;;;;;;;;;6.75;4.75;;;;;5.74;69.64;100927.25;5074767;28;45827;-77
2022/01/07 03:23:55;;;;;;;;;9.00;8.00;;;;;5.74;69.89;100931.59;5056353;28;46135;-76
2022/01/07 03:26:20;;;;;;;;;7.00;7.00;;;;;5.73;69.87;100938.56;5074864;28;46183;-78
2022/01/07 03:28:47;;;;;;;;;5.00;5.00;;;;;5.66;69.71;100929.38;5075735;28;45754;-76
2022/01/07 03:31:12;;;;;;;;;8.50;5.50;;;;;5.68;69.34;100934.47;5079611;28;46462;-75
2022/01/07 03:33:37;;;;;;;;;7.50;5.25;;;;;5.67;69.84;100931.03;5079947;28;46245;-76
2022/01/07 03:36:03;;;;;;;;;7.75;6.25;;;;;5.75;69.62;100930.69;5080422;28;45549;-76
2022/01/07 03:38:29;;;;;;;;;5.00;4.00;;;;;5.69;69.89;100916.22;5060801;28;45800;-77
2022/01/07 03:40:55;;;;;;;;;7.25;5.50;;;;;5.71;69.71;100913.56;5086120;28;45391;-77
2022/01/07 03:43:20;;;;;;;;;5.50;5.00;;;;;5.78;69.60;100928.78;5088864;28;46128;-77
2022/01/07 03:45:45;;;;;;;;;6.00;5.00;;;;;5.79;69.48;100914.03;5093913;28;45368;-77
2022/01/07 03:51:32;;;;;;;;;5.25;5.00;;;;;5.83;69.73;100924.22;5087672;28;45382;-78
2022/01/07 03:53:58;;;;;;;;;6.00;6.00;;;;;5.80;69.73;100913.13;5088512;28;45504;-76
2022/01/07 03:56:23;;;;;;;;;4.00;3.00;;;;;5.85;69.88;100918.94;5085992;28;45694;-77
2022/01/07 03:58:51;;;;;;;;;5.00;4.25;;;;;5.85;69.37;100921.56;5075013;28;45759;-78
2022/01/07 04:01:17;;;;;;;;;6.50;5.00;;;;;5.85;69.91;100919.81;5074318;28;47438;-77
2022/01/07 04:03:42;;;;;;;;;6.75;5.50;;;;;5.86;69.50;100921.50;5074246;28;45662;-78
2022/01/07 04:06:08;;;;;;;;;5.00;5.00;;;;;5.87;69.64;100918.00;5073884;28;45617;-77
2022/01/07 04:08:33;;;;;;;;;4.50;4.00;;;;;5.86;69.58;100892.91;5074360;28;45753;-77
2022/01/07 04:10:59;;;;;;;;;5.75;5.75;;;;;5.82;69.45;100891.34;5073966;28;45841;-78
2022/01/07 04:13:24;;;;;;;;;4.00;4.00;;;;;5.86;69.67;100889.44;5075209;28;45688;-76
2022/01/07 04:15:50;;;;;;;;;5.75;4.00;;;;;5.89;69.72;100891.91;5077027;28;45774;-77
2022/01/07 04:21:37;;;;;;;;;4.00;4.00;;;;;5.83;69.47;100874.81;5075022;28;45663;-77
2022/01/07 04:24:02;;;;;;;;;5.00;2.50;;;;;5.84;69.74;100873.06;5074600;28;45699;-76
2022/01/07 04:26:27;;;;;;;;;5.25;4.50;;;;;5.89;69.38;100890.16;5074357;28;45624;-77
2022/01/07 04:28:54;;;;;;;;;4.50;4.00;;;;;5.89;69.83;100884.13;5074538;28;45757;-76
2022/01/07 04:34:42;;;;;;;;;5.75;4.75;;;;;5.90;69.91;100878.00;5075168;28;46021;-77
2022/01/07 04:37:07;;;;;;;;;4.50;4.50;;;;;5.94;69.59;100878.72;5075403;28;45880;-76
2022/01/07 04:39:33;;;;;;;;;4.00;4.00;;;;;5.93;70.17;100877.03;5074139;28;45894;-75
2022/01/07 04:41:59;;;;;;;;;5.25;4.25;;;;;5.81;69.77;100861.06;5073907;28;45868;-78
2022/01/07 04:44:25;;;;;;;;;3.00;2.00;;;;;5.96;69.73;100874.28;5073383;28;46217;-77
2022/01/07 04:50:19;;;;;;;;;5.00;4.00;;;;;5.90;69.86;100884.06;5074045;28;45816;-77
2022/01/07 04:52:46;;;;;;;;;5.00;4.00;;;;;5.90;70.01;100881.47;5073592;28;46725;-78
2022/01/07 04:55:14;;;;;;;;;4.25;3.50;;;;;5.88;69.78;100887.66;5072029;28;46257;-77
2022/01/07 04:57:41;;;;;;;;;2.00;2.00;;;;;5.93;70.08;100888.28;5073026;28;46033;-76
2022/01/07 05:00:09;;;;;;;;;5.50;2.50;;;;;5.95;69.86;100883.84;5055748;28;45539;-78
2022/01/07 05:06:33;;;;;;;;;2.00;2.00;;;;;5.92;70.22;100886.59;5072488;28;45740;-77
2022/01/07 05:08:41;;;;;;;;;2.50;2.00;;;;;5.87;70.08;100873.81;5073266;28;45736;-78
2022/01/07 05:11:07;;;;;;;;;3.75;3.00;;;;;5.90;69.91;100878.00;5073844;28;45749;-77
2022/01/07 05:13:32;;;;;;;;;4.25;2.00;;;;;5.85;70.30;100869.56;5071686;28;46675;-78
2022/01/07 05:15:57;;;;;;;;;2.00;2.00;;;;;5.89;69.84;100874.56;5073228;28;45916;-77
2022/01/07 05:21:45;;;;;;;;;1.75;1.50;;;;;5.87;70.19;100875.56;5073687;28;45641;-78
2022/01/07 05:24:10;;;;;;;;;2.50;2.00;;;;;5.86;70.41;100876.44;5072817;28;46530;-77
2022/01/07 05:26:36;;;;;;;;;4.00;2.00;;;;;5.73;70.15;100862.31;5072889;28;46021;-75
2022/01/07 05:29:04;;;;;;;;;4.00;2.50;;;;;5.85;70.25;100890.34;5073311;28;45656;-76
2022/01/07 05:31:30;;;;;;;;;5.00;4.00;;;;;5.86;70.28;100886.84;5073261;28;45720;-76
2022/01/07 05:37:22;;;;;;;;;3.00;2.00;;;;;5.82;70.13;100885.31;5072647;28;45750;-78
2022/01/07 05:39:48;;;;;;;;;3.00;2.50;;;;;5.81;70.46;100881.03;5073234;28;45782;-77
2022/01/07 05:42:14;;;;;;;;;3.00;2.00;;;;;5.81;70.54;100881.88;5072229;28;45635;-78
2022/01/07 05:44:41;;;;;;;;;3.75;3.00;;;;;5.77;70.95;100879.50;5073010;28;46563;-75
2022/01/07 05:47:09;;;;;;;;;3.50;3.00;;;;;5.83;70.14;100887.00;5072541;28;45609;-76
2022/01/07 05:49:47;;;;;;;;;2.50;2.50;;;;;5.65;70.45;100846.28;5072814;28;45909;-78
2022/01/07 05:52:15;;;;;;;;;4.00;4.00;;;;;5.84;70.46;100886.06;5073063;28;45757;-76
2022/01/07 05:54:40;;;;;;;;;8.00;4.00;;;;;5.74;70.38;100869.22;5073073;28;46591;-77
2022/01/07 05:57:07;;;;;;;;;4.50;4.00;;;;;5.84;70.55;100888.66;5072120;28;46420;-77
2022/01/07 05:59:33;;;;;;;;;5.00;4.00;;;;;5.82;70.40;100874.91;5053388;28;45602;-77
2022/01/07 06:02:00;;;;;;;;;2.50;2.00;;;;;5.81;70.48;100884.47;5072455;28;45580;-77
2022/01/07 06:04:25;;;;;;;;;4.50;3.50;;;;;5.85;70.73;100887.75;5072096;28;46488;-78
2022/01/07 06:06:50;;;;;;;;;4.00;3.00;;;;;5.83;70.90;100880.03;5072886;28;45601;-78
2022/01/07 06:09:17;;;;;;;;;3.50;2.00;;;;;5.81;70.57;100881.88;5076251;28;45593;-77
2022/01/07 06:11:44;;;;;;;;;2.00;2.00;;;;;5.87;70.89;100888.56;5076006;28;45764;-77
2022/01/07 06:14:09;;;;;;;;;3.50;2.00;;;;;5.88;70.64;100888.47;5075787;28;46433;-78
2022/01/07 06:16:35;;;;;;;;;3.00;2.00;;;;;5.78;70.68;100869.00;5074070;28;47385;-77
2022/01/07 06:19:09;;;;;;;;;2.00;2.00;;;;;5.93;71.11;100897.84;5075710;28;45700;-76
2022/01/07 06:21:37;;;;;;;;;4.00;3.00;;;;;5.94;70.73;100896.94;5076291;28;45796;-78
2022/01/07 06:24:03;;;;;;;;;5.00;2.00;;;;;5.95;70.88;100891.63;5074919;28;46762;-77
2022/01/07 06:26:32;;;;;;;;;1.25;1.00;;;;;5.89;70.83;100895.38;5074288;28;46650;-78
2022/01/07 06:28:58;;;;;;;;;4.25;4.00;;;;;5.92;71.01;100899.59;5076832;28;45922;-77
2022/01/07 06:31:24;;;;;;;;;5.25;3.00;;;;;5.99;70.89;100905.34;5076277;28;45764;-78
2022/01/07 06:33:50;;;;;;;;;5.00;2.50;;;;;6.00;70.87;100902.66;5076030;28;47295;-77
2022/01/07 06:36:16;;;;;;;;;5.25;2.00;;;;;6.03;71.02;100902.53;5057147;28;47127;-76
2022/01/07 06:38:41;;;;;;;;;3.00;3.00;;;;;6.05;71.14;100892.03;5075358;28;45924;-76
2022/01/07 06:41:07;;;;;;;;;2.00;1.25;;;;;6.10;71.27;100895.28;5075867;28;45522;-78
2022/01/07 06:43:33;;;;;;;;;3.00;3.00;;;;;6.10;71.47;100890.09;5074662;28;45681;-77
2022/01/07 06:45:58;;;;;;;;;3.00;3.00;;;;;6.12;71.26;100883.88;5075090;28;46074;-76
2022/01/07 06:48:24;;;;;;;;;4.50;3.00;;;;;5.92;71.40;100845.00;5075326;28;45721;-77
2022/01/07 06:50:49;;;;;;;;;4.00;4.00;;;;;6.21;71.25;100890.38;5075357;28;45613;-78
2022/01/07 06:53:14;;;;;;;;;1.75;1.25;;;;;6.23;71.35;100885.94;5075737;28;45584;-77
2022/01/07 06:55:40;;;;;;;;;2.50;2.00;;;;;6.17;71.09;100875.84;5075394;28;45895;-78
2022/01/07 06:58:05;;;;;;;;;4.50;2.50;;;;;6.27;71.53;100877.91;5075302;28;46040;-78
2022/01/07 07:00:31;;;;;;;;;4.75;2.00;;;;;6.29;71.12;100894.31;5075594;28;45597;-78
2022/01/07 07:02:56;;;;;;;;;2.50;2.50;;;;;6.33;71.59;100889.78;5074978;28;46582;-78
2022/01/07 07:05:24;;;;;;;;;3.50;2.00;;;;;6.28;71.29;100874.41;5074410;28;45863;-78
2022/01/07 07:07:50;;;;;;;;;5.00;4.00;;;;;6.33;71.46;100890.63;5074633;28;45926;-76
2022/01/07 07:10:15;;;;;;;;;4.50;4.00;;;;;6.34;71.35;100888.88;5075626;28;45609;-77
2022/01/07 07:12:40;;;;;;;;;3.50;3.50;;;;;6.32;71.57;100886.34;5074914;28;46505;-76
2022/01/07 07:15:06;;;;;;;;;2.50;2.00;;;;;6.34;71.96;100888.88;5074976;28;45883;-77
2022/01/07 07:17:31;;;;;;;;;4.00;4.00;;;;;6.32;71.72;100891.53;5074234;28;45625;-76
2022/01/07 07:19:57;;;;;;;;;2.50;2.50;;;;;6.33;71.79;100893.22;5074217;28;45800;-76
2022/01/07 07:22:22;;;;;;;;;3.25;2.00;;;;;6.31;72.24;100889.88;5075018;28;46454;-75
2022/01/07 07:24:48;;;;;;;;;3.00;2.00;;;;;6.38;72.02;100900.81;5074714;28;45826;-75
2022/01/07 07:27:13;;;;;;;;;5.00;4.00;;;;;6.42;72.03;100910.19;5056200;28;45923;-76
2022/01/07 07:29:38;;;;;;;;;4.00;2.00;;;;;6.44;71.90;100900.50;5075343;28;45553;-77
2022/01/07 07:32:08;;;;;;;;;4.25;3.50;;;;;6.46;71.98;100914.31;5072861;28;47486;-78
2022/01/07 07:37:55;;;;;;;;;2.25;1.75;;;;;6.52;72.24;100898.38;5074875;28;46409;-76
2022/01/07 07:40:20;;;;;;;;;3.50;3.50;;;;;6.54;71.78;100921.72;5075187;28;45904;-76
2022/01/07 07:42:46;;;;;;;;;5.00;4.00;;;;;6.55;72.11;100926.00;5075083;28;45564;-77
2022/01/07 07:45:14;;;;;;;;;1.50;1.50;;;;;6.56;72.05;100932.91;5074706;28;45672;-78
2022/01/07 07:47:40;;;;;;;;;4.00;2.00;;;;;6.58;72.24;100928.47;5074422;28;45800;-77
2022/01/07 07:50:06;;;;;;;;;2.50;2.50;;;;;6.61;72.13;100949.97;5074851;28;45745;-77
2022/01/07 07:52:32;;;;;;;;;2.00;1.50;;;;;6.62;72.28;100941.25;5074808;28;46895;-75
2022/01/07 07:54:57;;;;;;;;;2.50;2.00;;;;;6.63;72.41;100950.75;5075002;28;45985;-77
2022/01/07 07:57:22;;;;;;;;;5.25;4.75;;;;;6.63;72.77;100940.34;5074603;28;45740;-77
2022/01/07 07:59:49;;;;;;;;;4.50;4.00;;;;;6.52;72.70;100918.38;5075352;28;45513;-76
2022/01/07 08:02:20;;;;;;;;;2.50;2.00;;;;;6.59;73.22;100940.56;5075133;28;46527;-76
2022/01/07 08:08:21;;;;;;;;;4.00;2.00;;;;;6.63;73.36;100948.16;5073734;28;45863;-77
2022/01/07 08:10:50;;;;;;;;;2.00;2.00;;;;;6.66;73.35;100949.75;5075505;28;45531;-77
2022/01/07 08:16:04;;;;;;;;;3.50;1.75;;;;;6.70;73.24;100938.25;5074763;28;46443;-77
2022/01/07 08:18:35;;;;;;;;;2.50;2.00;;;;;6.70;73.37;100938.25;5075033;28;45659;-76
2022/01/07 08:21:09;;;;;;;;;2.00;2.00;;;;;6.72;73.59;100952.91;5075417;28;45656;-77
2022/01/07 08:23:37;;;;;;;;;2.00;1.00;;;;;6.74;73.67;100939.81;5075405;28;45661;-78
2022/01/07 08:26:07;;;;;;;;;2.50;2.00;;;;;6.75;73.58;100941.47;5057442;28;47375;-78
2022/01/07 08:28:38;;;;;;;;;1.50;1.50;;;;;6.72;73.60;100934.69;5075496;28;45869;-78
2022/01/07 08:36:46;;;;;;;;;1.50;1.00;;;;;6.82;73.63;100934.19;5075512;28;45857;-76
2022/01/07 08:39:11;;;;;;;;;1.00;1.00;;;;;6.82;73.54;100937.66;5075217;28;45899;-78
2022/01/07 08:41:55;;;;;;;;;0.75;0.00;;;;;6.69;73.12;100910.56;5056859;28;45627;-79
2022/01/07 08:44:26;;;;;;;;;1.75;1.00;;;;;6.87;73.28;100938.25;5074179;28;47452;-78
2022/01/07 08:46:52;;;;;;;;;2.00;1.25;;;;;6.88;73.35;100931.28;5074411;28;46099;-78
2022/01/07 08:49:17;;;;;;;;;0.00;0.00;;;;;6.87;73.33;100940.88;5074555;28;45675;-77
2022/01/07 08:51:43;;;;;;;;;1.00;1.00;;;;;6.80;73.48;100923.88;5075042;28;45851;-78
2022/01/07 08:54:08;;;;;;;;;2.25;1.00;;;;;6.87;73.38;100927.84;5074799;28;45634;-77
2022/01/07 08:56:37;;;;;;;;;1.00;0.00;;;;;6.81;73.21;100890.84;5074029;28;45821;-78
2022/01/07 08:59:08;;;;;;;;;0.00;0.00;;;;;6.59;73.14;100836.44;5074293;28;45674;-78
2022/01/07 09:01:45;;;;;;;;;0.00;0.00;;;;;6.58;73.33;100853.00;5055618;28;46111;-77
2022/01/07 09:04:11;;;;;;;;;0.75;0.00;;;;;6.89;73.08;100894.75;5074413;28;45644;-76
2022/01/07 09:06:36;;;;;;;;;0.50;0.50;;;;;6.93;73.23;100869.41;5074156;28;46577;-77
2022/01/07 09:09:02;;;;;;;;;1.50;0.00;;;;;6.81;73.18;100837.00;5074022;28;45428;-77
2022/01/07 09:11:28;;;;;;;;;1.00;1.00;;;;;6.83;73.07;100860.38;5074805;28;45600;-78
2022/01/07 09:13:56;;;;;;;;;3.25;2.00;;;;;6.87;73.01;100872.31;5073868;28;47513;-76
2022/01/07 09:16:24;;;;;;;;;2.00;1.75;;;;;6.91;73.00;100886.88;5073988;28;46324;-76
2022/01/07 09:18:49;;;;;;;;;5.00;5.00;;;;;6.90;73.10;100891.25;5038497;28;46005;-77
2022/01/07 09:21:18;;;;;;;;;3.50;3.25;;;;;6.95;73.00;100904.88;5074545;28;45881;-77
2022/01/07 09:23:43;;;;;;;;;5.00;5.00;;;;;6.96;73.01;100908.31;5075001;28;46069;-78
2022/01/07 09:26:10;;;;;;;;;1.00;1.00;;;;;7.04;73.03;100927.84;5073352;28;48113;-78
2022/01/07 09:28:36;;;;;;;;;1.00;1.00;;;;;7.01;73.07;100919.34;5074800;28;45719;-77
2022/01/07 09:31:02;;;;;;;;;1.25;0.50;;;;;7.01;72.94;100911.53;5074696;28;45636;-77
2022/01/07 09:33:28;;;;;;;;;1.75;0.75;;;;;7.04;73.07;100929.59;5073823;28;45979;-78
2022/01/07 09:35:53;;;;;;;;;0.00;0.00;;;;;7.04;72.98;100924.38;5073529;28;47008;-78
2022/01/07 09:38:19;;;;;;;;;0.25;0.25;;;;;6.87;72.93;100900.97;5074231;28;45699;-78
2022/01/07 09:40:44;;;;;;;;;0.75;0.75;;;;;7.03;72.96;100923.53;5073627;28;45959;-77
2022/01/07 09:43:14;;;;;;;;;1.00;1.00;;;;;7.09;73.08;100930.19;5073226;28;46529;-77
2022/01/07 09:45:39;;;;;;;;;1.75;1.00;;;;;7.13;72.95;100934.31;5073136;28;46153;-78
2022/01/07 09:48:08;;;;;;;;;1.00;0.50;;;;;7.08;72.71;100920.69;5071647;28;46055;-77
2022/01/07 09:53:55;;;;;;;;;0.50;0.50;;;;;7.12;72.76;100914.44;5073305;28;45674;-78
2022/01/07 09:56:21;;;;;;;;;2.00;1.00;;;;;7.18;72.92;100921.09;5072578;28;46130;-77
2022/01/07 09:58:47;;;;;;;;;1.00;1.00;;;;;7.18;73.05;100921.09;5055268;28;45800;-77
2022/01/07 10:01:19;;;;;;;;;1.00;1.00;;;;;7.09;72.73;100912.81;5073861;28;45922;-77
2022/01/07 10:03:45;;;;;;;;;1.00;1.00;;;;;7.06;72.86;100896.50;5073111;28;46481;-76
2022/01/07 10:06:21;;;;;;;;;0.00;0.00;;;;;7.20;72.67;100909.66;5073048;28;46183;-79
2022/01/07 10:09:10;;;;;;;;;1.00;1.00;;;;;7.29;72.58;100919.56;5073363;28;45687;-79
2022/01/07 10:11:36;;;;;;;;;0.00;0.00;;;;;7.34;72.65;100912.34;5073822;28;45546;-78
2022/01/07 10:14:21;;;;;;;;;1.25;1.00;;;;;7.39;72.53;100907.78;5072921;28;45824;-76
2022/01/07 10:16:50;;;;;;;;;1.00;1.00;;;;;7.29;72.71;100885.69;5073075;28;46154;-79
2022/01/07 10:19:32;;;;;;;;;2.00;1.00;;;;;7.47;72.42;100904.75;5073011;28;45930;-79
2022/01/07 10:22:00;;;;;;;;;1.00;1.00;;;;;7.53;72.30;100915.69;5073566;28;45772;-80
2022/01/07 10:24:26;;;;;;;;;1.00;0.75;;;;;7.54;72.26;100888.69;5073344;28;46566;-81
2022/01/07 10:27:14;;;;;;;;;1.00;0.00;;;;;7.61;72.22;100896.19;5072753;28;46267;-81
2022/01/07 10:29:41;;;;;;;;;0.25;0.00;;;;;7.58;72.16;100890.22;5074374;28;45850;-79
2022/01/07 10:32:21;;;;;;;;;0.00;0.00;;;;;7.66;72.19;100879.38;5056874;28;46135;-79
2022/01/07 10:35:06;;;;;;;;;0.00;0.00;;;;;7.68;72.11;100887.94;5076760;28;45793;-79
2022/01/07 10:37:32;;;;;;;;;0.00;0.00;;;;;7.70;72.08;100896.53;5075439;28;46130;-79
2022/01/07 10:39:57;;;;;;;;;0.00;0.00;;;;;7.68;71.92;100863.63;5057230;28;45681;-83
2022/01/07 10:42:24;;;;;;;;;0.00;0.00;;;;;7.67;71.81;100870.59;5073232;28;45914;-79
2022/01/07 10:45:04;;;;;;;;;0.00;0.00;;;;;7.64;71.75;100869.94;5072851;28;46707;-81
2022/01/07 10:47:32;;;;;;;;;0.00;0.00;;;;;7.72;71.97;100872.97;5072310;28;46837;-81
2022/01/07 10:50:17;;;;;;;;;0.50;0.00;;;;;7.74;71.97;100869.34;5073607;28;45936;-79
2022/01/07 10:52:42;;;;;;;;;0.00;0.00;;;;;7.78;72.01;100875.22;5076070;28;45948;-79
2022/01/07 10:55:14;;;;;;;;;1.00;0.00;;;;;7.82;71.89;100881.97;5078609;28;46391;-79
2022/01/07 10:57:44;;;;;;;;;0.50;0.00;;;;;7.85;71.84;100871.34;5080576;28;45618;-77
2022/01/07 11:00:12;;;;;;;;;0.25;0.25;;;;;7.89;71.79;100878.94;5079321;28;45719;-82
2022/01/07 11:02:39;;;;;;;;;0.00;0.00;;;;;7.94;71.72;100876.06;5077849;28;45540;-85
2022/01/07 11:05:04;;;;;;;;;0.00;0.00;;;;;7.94;71.56;100853.41;5077115;28;46333;-80
2022/01/07 11:07:31;;;;;;;;;0.25;0.00;;;;;8.13;71.49;100887.16;5077049;28;47050;-83
2022/01/07 11:09:57;;;;;;;;;1.00;0.00;;;;;8.14;71.78;100870.59;5077505;28;45572;-82
2022/01/07 11:12:26;;;;;;;;;0.00;0.00;;;;;8.19;71.46;100863.31;5059981;28;45643;-82
2022/01/07 11:14:51;;;;;;;;;0.25;0.00;;;;;8.32;71.22;100869.53;5079312;28;46432;-79
2022/01/07 11:17:21;;;;;;;;;0.00;0.00;;;;;8.39;70.95;100878.72;5080922;28;46340;-80
2022/01/07 11:20:06;;;;;;;;;0.25;0.00;;;;;8.47;70.78;100885.28;5077093;28;46000;-77
2022/01/07 11:22:32;;;;;;;;;0.00;0.00;;;;;8.49;70.63;100865.97;5073293;28;45814;-76
2022/01/07 11:25:11;;;;;;;;;0.00;0.00;;;;;8.47;70.47;100862.63;5074445;28;46517;-76
2022/01/07 11:27:54;;;;;;;;;1.00;0.00;;;;;8.47;70.24;100860.00;5074493;28;45625;-76
2022/01/07 11:30:23;;;;;;;;;1.00;0.00;;;;;8.47;70.09;100880.03;5074579;28;45762;-74
2022/01/07 11:32:50;;;;;;;;;0.00;0.00;;;;;8.46;69.99;100868.75;5074308;28;45809;-76
2022/01/07 11:35:19;;;;;;;;;1.25;0.75;;;;;8.47;70.55;100888.72;5074164;28;46591;-82
2022/01/07 11:37:48;;;;;;;;;1.00;0.00;;;;;8.48;70.01;100876.47;5074398;28;47022;-77
2022/01/07 11:40:32;;;;;;;;;0.25;0.00;;;;;8.48;69.83;100872.09;5075573;28;45698;-77
2022/01/07 11:43:08;;;;;;;;;0.00;0.00;;;;;8.46;69.73;100860.94;5075823;28;45529;-80
2022/01/07 11:45:34;;;;;;;;;0.00;0.00;;;;;8.47;69.79;100864.38;5075118;28;47346;-81
2022/01/07 11:48:13;;;;;;;;;1.75;0.00;;;;;8.40;69.53;100840.41;5057379;28;46601;-77
2022/01/07 11:51:11;;;;;;;;;0.00;0.00;;;;;8.45;69.38;100856.63;5076018;28;45660;-77
2022/01/07 11:53:44;;;;;;;;;0.00;0.00;;;;;8.45;68.99;100848.81;5058372;28;45592;-80
2022/01/07 11:56:19;;;;;;;;;1.00;0.00;;;;;8.40;69.20;100851.69;5075398;28;47812;-80
2022/01/07 11:58:57;;;;;;;;;1.00;0.00;;;;;8.45;69.35;100838.34;5075799;28;46311;-78
2022/01/07 12:01:26;;;;;;;;;0.00;0.00;;;;;8.46;69.32;100855.72;5075650;28;45493;-76
2022/01/07 12:03:58;;;;;;;;;0.25;0.00;;;;;8.42;69.16;100825.50;5074614;28;45673;-76
2022/01/07 12:06:24;;;;;;;;;0.00;0.00;;;;;8.54;69.10;100839.56;5077976;28;46312;-77
2022/01/07 12:08:58;;;;;;;;;1.00;0.00;;;;;8.58;69.10;100838.50;5077241;28;45863;-78
2022/01/07 12:11:26;;;;;;;;;1.00;0.00;;;;;8.57;69.02;100855.91;5077547;28;45489;-80
2022/01/07 12:13:53;;;;;;;;;0.00;0.00;;;;;8.56;68.41;100849.00;5075989;28;45573;-77
2022/01/07 12:16:24;;;;;;;;;0.75;0.00;;;;;8.54;68.64;100863.91;5075476;28;47412;-75
2022/01/07 12:18:50;;;;;;;;;0.00;0.00;;;;;8.61;68.39;100873.09;5075482;28;46193;-74
2022/01/07 12:21:17;;;;;;;;;0.25;0.25;;;;;8.69;67.86;100902.19;5075121;28;45742;-77
2022/01/07 12:23:42;;;;;;;;;1.00;0.00;;;;;8.73;68.30;100895.03;5076189;28;45600;-79
2022/01/07 12:26:09;;;;;;;;;1.00;0.50;;;;;8.79;68.32;100879.00;5075437;28;46634;-77
2022/01/07 12:28:48;;;;;;;;;0.75;0.00;;;;;8.82;68.13;100856.13;5075981;28;45994;-77
2022/01/07 12:31:14;;;;;;;;;0.25;0.00;;;;;8.83;67.83;100839.53;5076748;28;45640;-76
2022/01/07 12:33:50;;;;;;;;;0.00;0.00;;;;;8.86;67.55;100846.34;5076720;28;45864;-75
2022/01/07 12:36:34;;;;;;;;;1.00;0.00;;;;;8.83;67.77;100850.00;5076089;28;46618;-78